Time;durP1;ratioP1;P1;durP2;ratioP2;P2;SDS_P1;SDS_P2;PMS_P1;PMS_P2;Temp;Humidity;BMP_temperature;BMP_pressure;BME280_temperature;BME280_humidity;BME280_pressure;Samples;Min_cycle;Max_cycle;Signal;HPM_P1;HPM_P2
2022/11/26 00:02:23;;;;;;;17.17;9.80;;;;;;;;;;5069584;28;20032;-80
2022/11/26 00:04:49;;;;;;;17.58;10.10;;;;;;;;;;5061180;28;20143;-80
2022/11/26 00:07:16;;;;;;;18.88;10.15;;;;;;;;;;5054061;28;20079;-80
2022/11/26 00:09:42;;;;;;;17.55;10.85;;;;;;;;;;5049488;28;20047;-80
2022/11/26 00:12:17;;;;;;;17.25;9.32;;;;;;;;;;5065630;28;20020;-80
2022/11/26 00:14:42;;;;;;;18.17;10.85;;;;;;;;;;5082333;28;20500;-80
2022/11/26 00:17:10;;;;;;;16.05;9.55;;;;;;;;;;5039149;28;20017;-80
2022/11/26 00:19:35;;;;;;;15.07;9.43;;;;;;;;;;5081849;28;20087;-80
2022/11/26 00:22:01;;;;;;;18.33;10.18;;;;;;;;;;5082990;28;20110;-81
2022/11/26 00:24:26;;;;;;;16.23;10.35;;;;;;;;;;5054537;28;20129;-80
2022/11/26 00:26:58;;;;;;;17.75;10.45;;;;;;;;;;5041856;28;20483;-81
2022/11/26 00:29:24;;;;;;;18.73;11.00;;;;;;;;;;5038963;28;20376;-81
2022/11/26 00:31:49;;;;;;;18.55;10.00;;;;;;;;;;5055707;28;20116;-81
2022/11/26 00:34:15;;;;;;;18.90;10.43;;;;;;;;;;5035532;28;20087;-80
2022/11/26 00:36:40;;;;;;;19.50;11.75;;;;;;;;;;5038847;28;20545;-80
2022/11/26 00:39:06;;;;;;;16.95;9.93;;;;;;;;;;5066597;28;20548;-80
2022/11/26 00:41:32;;;;;;;;;;;;;;;;;;5063974;28;20024;-81
2022/11/26 00:43:57;;;;;;;17.02;9.77;;;;;;;;;;5038564;28;19912;-81
2022/11/26 00:46:23;;;;;;;20.95;11.27;;;;;;;;;;5072181;28;20039;-80
2022/11/26 00:48:48;;;;;;;21.08;10.85;;;;;;;;;;5067893;28;20032;-80
2022/11/26 00:51:14;;;;;;;18.02;10.13;;;;;;;;;;5060733;28;20016;-80
2022/11/26 00:53:40;;;;;;;18.80;11.13;;;;;;;;;;5065668;28;20074;-81
2022/11/26 00:56:05;;;;;;;20.45;12.65;;;;;;;;;;5072157;28;20063;-81
2022/11/26 00:58:31;;;;;;;18.33;10.25;;;;;;;;;;5057276;28;20079;-81
2022/11/26 01:00:57;;;;;;;19.35;11.10;;;;;;;;;;5055111;28;20024;-81
2022/11/26 01:03:23;;;;;;;19.23;10.90;;;;;;;;;;5056791;28;20059;-80
2022/11/26 01:05:49;;;;;;;18.13;10.68;;;;;;;;;;5066393;28;20036;-79
2022/11/26 01:08:26;;;;;;;19.55;11.65;;;;;;;;;;5034981;28;20064;-80
2022/11/26 01:10:51;;;;;;;19.20;10.73;;;;;;;;;;5061736;28;20031;-81
2022/11/26 01:13:17;;;;;;;18.08;10.50;;;;;;;;;;5065177;28;20475;-81
2022/11/26 01:15:42;;;;;;;20.38;11.68;;;;;;;;;;5081528;28;20040;-80
2022/11/26 01:18:12;;;;;;;19.23;10.48;;;;;;;;;;5058157;28;20074;-80
2022/11/26 01:20:37;;;;;;;20.20;11.13;;;;;;;;;;5057372;28;20118;-79
2022/11/26 01:23:02;;;;;;;22.40;12.55;;;;;;;;;;5057581;28;20081;-81
2022/11/26 01:25:28;;;;;;;21.02;11.27;;;;;;;;;;5074913;28;20094;-79
2022/11/26 01:27:53;;;;;;;19.13;11.68;;;;;;;;;;5036923;28;20536;-79
2022/11/26 01:30:20;;;;;;;22.08;11.68;;;;;;;;;;5057600;28;20502;-79
2022/11/26 01:32:46;;;;;;;21.00;11.93;;;;;;;;;;5057872;28;20116;-79
2022/11/26 01:35:11;;;;;;;20.10;10.95;;;;;;;;;;5054120;28;20500;-80
2022/11/26 01:37:37;;;;;;;17.90;10.75;;;;;;;;;;5054511;28;20086;-80
2022/11/26 01:40:03;;;;;;;18.77;11.68;;;;;;;;;;5036790;28;20037;-80
2022/11/26 01:42:28;;;;;;;;;;;;;;;;;;5043830;28;20031;-80
2022/11/26 01:44:53;;;;;;;21.23;11.27;;;;;;;;;;5091378;28;19916;-80
2022/11/26 01:47:23;;;;;;;19.02;10.52;;;;;;;;;;5055738;28;20031;-80
2022/11/26 01:50:07;;;;;;;20.27;11.02;;;;;;;;;;5072986;28;20391;-80
2022/11/26 01:52:33;;;;;;;20.40;11.38;;;;;;;;;;5060598;28;20039;-79
2022/11/26 01:54:58;;;;;;;21.38;12.07;;;;;;;;;;5065665;28;20024;-79
2022/11/26 01:57:24;;;;;;;20.23;11.23;;;;;;;;;;5071636;28;20067;-79
2022/11/26 01:59:50;;;;;;;;;;;;;;;;;;5052691;28;20479;-80
2022/11/26 02:02:15;;;;;;;19.77;10.95;;;;;;;;;;5064487;28;19923;-79
2022/11/26 02:04:43;;;;;;;18.73;10.95;;;;;;;;;;5071264;28;20470;-79
2022/11/26 02:07:09;;;;;;;22.17;11.88;;;;;;;;;;5054472;28;20032;-80
2022/11/26 02:09:34;;;;;;;23.20;11.95;;;;;;;;;;5067190;28;20107;-79
2022/11/26 02:12:00;;;;;;;29.13;15.73;;;;;;;;;;5062180;28;20048;-80
2022/11/26 02:14:26;;;;;;;20.83;11.43;;;;;;;;;;5045431;28;20075;-80
2022/11/26 02:16:51;;;;;;;22.38;12.25;;;;;;;;;;5048916;28;20036;-80
2022/11/26 02:19:17;;;;;;;23.13;12.45;;;;;;;;;;5081740;28;20024;-81
2022/11/26 02:21:43;;;;;;;19.55;11.25;;;;;;;;;;5064288;28;20495;-80
2022/11/26 02:24:16;;;;;;;21.00;11.73;;;;;;;;;;5063477;28;20459;-81
2022/11/26 02:26:42;;;;;;;21.98;12.10;;;;;;;;;;5044092;28;20065;-80
2022/11/26 02:29:16;;;;;;;27.58;12.73;;;;;;;;;;5043207;28;20464;-80
2022/11/26 02:31:45;;;;;;;21.90;12.10;;;;;;;;;;5081097;28;20043;-81
2022/11/26 02:34:19;;;;;;;19.50;11.10;;;;;;;;;;5043209;28;20116;-80
2022/11/26 02:36:56;;;;;;;21.08;11.88;;;;;;;;;;5065542;28;20032;-80
2022/11/26 02:39:22;;;;;;;19.08;11.25;;;;;;;;;;5058901;28;20032;-80
2022/11/26 02:41:51;;;;;;;19.45;11.25;;;;;;;;;;5033862;28;20091;-80
2022/11/26 02:44:18;;;;;;;20.67;10.30;;;;;;;;;;5055972;28;20044;-80
2022/11/26 02:46:44;;;;;;;18.67;10.77;;;;;;;;;;5042310;28;20027;-80
2022/11/26 02:49:10;;;;;;;18.55;11.05;;;;;;;;;;5072265;28;20458;-80
2022/11/26 02:51:35;;;;;;;19.15;10.63;;;;;;;;;;5070452;28;20024;-80
2022/11/26 02:54:01;;;;;;;23.73;12.00;;;;;;;;;;5060503;28;20390;-80
2022/11/26 02:56:26;;;;;;;17.27;10.85;;;;;;;;;;5053791;28;20035;-81
2022/11/26 02:58:52;;;;;;;18.30;10.95;;;;;;;;;;5054354;28;20082;-80
2022/11/26 03:01:38;;;;;;;17.88;10.50;;;;;;;;;;5052864;28;20040;-79
2022/11/26 03:04:07;;;;;;;18.25;10.23;;;;;;;;;;5024873;28;20056;-79
2022/11/26 03:06:33;;;;;;;16.85;10.73;;;;;;;;;;5016195;28;20907;-79
2022/11/26 03:08:58;;;;;;;18.20;10.68;;;;;;;;;;5034822;28;20201;-79
2022/11/26 03:11:24;;;;;;;20.08;10.80;;;;;;;;;;5032436;28;20024;-79
2022/11/26 03:13:49;;;;;;;19.95;10.35;;;;;;;;;;5050994;28;20029;-79
2022/11/26 03:16:15;;;;;;;20.45;10.63;;;;;;;;;;5012483;28;20446;-81
2022/11/26 03:18:41;;;;;;;16.52;10.05;;;;;;;;;;5033146;28;20036;-79
2022/11/26 03:21:06;;;;;;;18.75;10.73;;;;;;;;;;5046020;28;20112;-79
2022/11/26 03:23:32;;;;;;;18.25;10.23;;;;;;;;;;5033618;28;20047;-80
2022/11/26 03:25:57;;;;;;;18.40;11.00;;;;;;;;;;5032113;28;20107;-80
2022/11/26 03:28:23;;;;;;;18.13;11.18;;;;;;;;;;5028053;28;20053;-80
2022/11/26 03:30:49;;;;;;;18.92;10.68;;;;;;;;;;5019895;28;20044;-79
2022/11/26 03:33:14;;;;;;;;;;;;;;;;;;5036706;28;20076;-79
2022/11/26 03:35:39;;;;;;;18.60;10.15;;;;;;;;;;5020169;28;19913;-80
2022/11/26 03:38:05;;;;;;;17.92;10.40;;;;;;;;;;5036718;28;20076;-80
2022/11/26 03:40:30;;;;;;;19.20;10.15;;;;;;;;;;5034953;28;20099;-80
2022/11/26 03:42:56;;;;;;;17.15;10.75;;;;;;;;;;5037040;28;20535;-79
2022/11/26 03:45:21;;;;;;;15.98;10.27;;;;;;;;;;5036219;28;20041;-79
2022/11/26 03:47:47;;;;;;;19.45;10.98;;;;;;;;;;5023668;28;20033;-80
2022/11/26 03:50:12;;;;;;;17.45;10.40;;;;;;;;;;5049585;28;20025;-80
2022/11/26 03:52:38;;;;;;;22.60;13.15;;;;;;;;;;5046344;28;20085;-79
2022/11/26 03:55:03;;;;;;;17.80;11.02;;;;;;;;;;5024880;28;20045;-79
2022/11/26 03:57:29;;;;;;;16.40;9.82;;;;;;;;;;5055284;28;20043;-80
2022/11/26 03:59:54;;;;;;;17.50;10.85;;;;;;;;;;5053572;28;20025;-81
2022/11/26 04:02:20;;;;;;;19.15;10.52;;;;;;;;;;5054363;28;20032;-79
2022/11/26 04:04:45;;;;;;;18.17;10.73;;;;;;;;;;5067070;28;20409;-79
2022/11/26 04:07:10;;;;;;;15.82;9.68;;;;;;;;;;5070913;28;20036;-81
2022/11/26 04:09:36;;;;;;;15.90;9.82;;;;;;;;;;5067414;28;20437;-81
2022/11/26 04:12:01;;;;;;;17.38;10.52;;;;;;;;;;5087311;28;20082;-81
2022/11/26 04:14:27;;;;;;;18.83;10.68;;;;;;;;;;5067364;28;20442;-81
2022/11/26 04:16:52;;;;;;;15.77;9.60;;;;;;;;;;5082005;28;20728;-80
2022/11/26 04:19:18;;;;;;;17.00;9.80;;;;;;;;;;5043032;28;20032;-80
2022/11/26 04:21:43;;;;;;;15.60;9.63;;;;;;;;;;5060781;28;20547;-80
2022/11/26 04:24:09;;;;;;;17.67;10.13;;;;;;;;;;5043693;28;20034;-80
2022/11/26 04:26:34;;;;;;;17.77;10.48;;;;;;;;;;5044904;28;20033;-80
2022/11/26 04:29:00;;;;;;;16.60;10.02;;;;;;;;;;5041659;28;20067;-80
2022/11/26 04:31:25;;;;;;;18.85;10.63;;;;;;;;;;5059395;28;20074;-79
2022/11/26 04:33:51;;;;;;;17.55;10.80;;;;;;;;;;5055366;28;20037;-79
2022/11/26 04:36:16;;;;;;;17.08;10.38;;;;;;;;;;5035829;28;20028;-80
2022/11/26 04:38:42;;;;;;;23.05;13.80;;;;;;;;;;5040148;28;20128;-80
2022/11/26 04:41:07;;;;;;;18.15;11.38;;;;;;;;;;5054440;28;20064;-80
2022/11/26 04:43:33;;;;;;;16.90;10.45;;;;;;;;;;5042582;28;20035;-80
2022/11/26 04:45:58;;;;;;;16.30;9.38;;;;;;;;;;5059178;28;20070;-80
2022/11/26 04:48:24;;;;;;;16.85;10.25;;;;;;;;;;5038116;28;20033;-79
2022/11/26 04:50:49;;;;;;;15.82;9.98;;;;;;;;;;5058579;28;20086;-80
2022/11/26 04:53:15;;;;;;;14.88;9.55;;;;;;;;;;5059244;28;20139;-81
2022/11/26 04:55:41;;;;;;;17.02;10.35;;;;;;;;;;5064796;28;20482;-81
2022/11/26 04:58:06;;;;;;;15.60;9.77;;;;;;;;;;5059349;28;20040;-79
2022/11/26 05:00:31;;;;;;;18.25;10.00;;;;;;;;;;5071766;28;20452;-79
2022/11/26 05:02:57;;;;;;;17.23;10.45;;;;;;;;;;5021143;28;20499;-80
2022/11/26 05:05:22;;;;;;;18.75;10.70;;;;;;;;;;5054658;28;20075;-79
2022/11/26 05:07:48;;;;;;;18.05;11.48;;;;;;;;;;5054514;28;20036;-79
2022/11/26 05:10:13;;;;;;;18.38;11.38;;;;;;;;;;5034690;28;20025;-80
2022/11/26 05:12:39;;;;;;;16.45;10.77;;;;;;;;;;5066116;28;20139;-80
2022/11/26 05:15:04;;;;;;;16.55;10.13;;;;;;;;;;5072792;28;20032;-80
2022/11/26 05:17:30;;;;;;;17.08;10.23;;;;;;;;;;5036267;28;20033;-80
2022/11/26 05:19:56;;;;;;;16.42;10.02;;;;;;;;;;5054607;28;20028;-82
2022/11/26 05:22:21;;;;;;;13.35;8.90;;;;;;;;;;5054311;28;20044;-79
2022/11/26 05:24:46;;;;;;;15.07;8.88;;;;;;;;;;5071211;28;20048;-80
2022/11/26 05:27:12;;;;;;;15.98;9.73;;;;;;;;;;5070901;28;20036;-80
2022/11/26 05:29:37;;;;;;;16.08;9.35;;;;;;;;;;5054548;28;20017;-80
2022/11/26 05:32:03;;;;;;;16.17;9.70;;;;;;;;;;5054228;28;20119;-82
2022/11/26 05:34:29;;;;;;;14.90;9.13;;;;;;;;;;5054921;28;20408;-80
2022/11/26 05:36:54;;;;;;;15.13;9.43;;;;;;;;;;5054056;28;20058;-81
2022/11/26 05:39:20;;;;;;;15.48;9.48;;;;;;;;;;5054542;28;20020;-80
2022/11/26 05:41:45;;;;;;;13.13;8.80;;;;;;;;;;5069776;28;20367;-80
2022/11/26 05:44:10;;;;;;;21.92;13.65;;;;;;;;;;5089541;28;20494;-81
2022/11/26 05:46:36;;;;;;;16.02;10.07;;;;;;;;;;5086025;28;20127;-82
2022/11/26 05:49:02;;;;;;;16.77;9.18;;;;;;;;;;5050657;28;20028;-79
2022/11/26 05:51:27;;;;;;;14.38;8.85;;;;;;;;;;5079858;28;20107;-80
2022/11/26 05:53:53;;;;;;;14.57;8.93;;;;;;;;;;5080459;28;20038;-80
2022/11/26 05:56:18;;;;;;;13.18;8.65;;;;;;;;;;5042266;28;20028;-80
2022/11/26 05:58:44;;;;;;;14.50;9.35;;;;;;;;;;5075967;28;20032;-80
2022/11/26 06:01:09;;;;;;;15.10;9.40;;;;;;;;;;5043111;28;20403;-81
2022/11/26 06:03:35;;;;;;;17.70;9.77;;;;;;;;;;5065378;28;20102;-80
2022/11/26 06:06:01;;;;;;;23.77;13.27;;;;;;;;;;5054489;28;20103;-80
2022/11/26 06:08:28;;;;;;;12.52;8.25;;;;;;;;;;5041470;28;20048;-80
2022/11/26 06:10:53;;;;;;;12.23;8.07;;;;;;;;;;5053492;28;20049;-80
2022/11/26 06:13:18;;;;;;;12.05;8.05;;;;;;;;;;5062439;28;20040;-81
2022/11/26 06:15:44;;;;;;;13.48;8.63;;;;;;;;;;5075215;28;20032;-77
2022/11/26 06:18:09;;;;;;;13.60;8.43;;;;;;;;;;5040711;28;20029;-78
2022/11/26 06:20:35;;;;;;;13.77;9.02;;;;;;;;;;5054222;28;20480;-78
2022/11/26 06:23:01;;;;;;;14.70;8.75;;;;;;;;;;5081381;28;20567;-78
2022/11/26 06:25:26;;;;;;;26.42;14.60;;;;;;;;;;5073424;28;20119;-81
2022/11/26 06:27:52;;;;;;;16.35;10.23;;;;;;;;;;5037724;28;20467;-79
2022/11/26 06:30:17;;;;;;;14.38;9.35;;;;;;;;;;5031958;28;20115;-78
2022/11/26 06:32:43;;;;;;;13.93;9.35;;;;;;;;;;5074337;28;20514;-80
2022/11/26 06:35:08;;;;;;;15.32;9.23;;;;;;;;;;5063081;28;20089;-80
2022/11/26 06:37:34;;;;;;;15.50;9.23;;;;;;;;;;5068236;28;20490;-80
2022/11/26 06:39:59;;;;;;;17.00;9.50;;;;;;;;;;5074594;28;20047;-79
2022/11/26 06:42:24;;;;;;;13.35;8.57;;;;;;;;;;5058776;28;20039;-80
2022/11/26 06:44:50;;;;;;;15.27;9.55;;;;;;;;;;5056122;28;20042;-78
2022/11/26 06:47:16;;;;;;;16.08;9.82;;;;;;;;;;5070827;28;20529;-78
2022/11/26 06:49:41;;;;;;;15.73;9.00;;;;;;;;;;5078725;28;20036;-77
2022/11/26 06:52:07;;;;;;;14.82;8.75;;;;;;;;;;5048398;28;20035;-78
2022/11/26 06:54:33;;;;;;;13.65;9.32;;;;;;;;;;5064175;28;20064;-78
2022/11/26 06:56:59;;;;;;;14.90;8.75;;;;;;;;;;5071324;28;20036;-78
2022/11/26 06:59:24;;;;;;;12.77;8.45;;;;;;;;;;5050414;28;20119;-79
2022/11/26 07:01:50;;;;;;;13.38;8.70;;;;;;;;;;5070074;28;20028;-77
2022/11/26 07:04:15;;;;;;;14.57;9.00;;;;;;;;;;5091239;28;20070;-79
2022/11/26 07:06:41;;;;;;;15.40;9.32;;;;;;;;;;5061759;28;20392;-81
2022/11/26 07:09:08;;;;;;;13.13;8.02;;;;;;;;;;5056610;28;20028;-78
2022/11/26 07:11:33;;;;;;;14.82;8.65;;;;;;;;;;5032898;28;20442;-79
2022/11/26 07:14:00;;;;;;;11.95;7.97;;;;;;;;;;5060915;28;20028;-79
2022/11/26 07:16:26;;;;;;;14.05;8.07;;;;;;;;;;5055042;28;20476;-80
2022/11/26 07:18:51;;;;;;;13.45;8.60;;;;;;;;;;5053168;28;20037;-80
2022/11/26 07:21:17;;;;;;;14.57;8.25;;;;;;;;;;5035009;28;20032;-79
2022/11/26 07:23:42;;;;;;;11.20;7.53;;;;;;;;;;5046277;28;20035;-79
2022/11/26 07:26:08;;;;;;;13.45;8.38;;;;;;;;;;5048625;28;20082;-79
2022/11/26 07:28:33;;;;;;;13.40;8.75;;;;;;;;;;5041050;28;20471;-80
2022/11/26 07:31:06;;;;;;;18.08;12.20;;;;;;;;;;5071674;28;20032;-78
2022/11/26 07:33:32;;;;;;;16.58;9.95;;;;;;;;;;5056952;28;20032;-81
2022/11/26 07:35:58;;;;;;;14.77;8.75;;;;;;;;;;5069761;28;20031;-79
2022/11/26 07:38:24;;;;;;;14.35;9.00;;;;;;;;;;5043054;28;20071;-79
2022/11/26 07:40:49;;;;;;;12.35;8.25;;;;;;;;;;5071816;28;20487;-79
2022/11/26 07:43:14;;;;;;;12.68;8.00;;;;;;;;;;5055188;28;20037;-80
2022/11/26 07:45:40;;;;;;;13.48;7.95;;;;;;;;;;5051910;28;20024;-79
2022/11/26 07:48:06;;;;;;;13.63;8.95;;;;;;;;;;5059048;28;20636;-79
2022/11/26 07:50:31;;;;;;;13.80;8.45;;;;;;;;;;5078773;28;20050;-79
2022/11/26 07:52:57;;;;;;;12.95;8.27;;;;;;;;;;5067126;28;20028;-79
2022/11/26 07:55:22;;;;;;;16.55;8.98;;;;;;;;;;5065436;28;20024;-80
2022/11/26 07:57:47;;;;;;;13.65;8.68;;;;;;;;;;5058738;28;20127;-79
2022/11/26 08:00:13;;;;;;;15.70;9.18;;;;;;;;;;5060576;28;20115;-77
2022/11/26 08:02:39;;;;;;;15.13;9.80;;;;;;;;;;5060912;28;20041;-78
2022/11/26 08:05:04;;;;;;;19.38;12.77;;;;;;;;;;5078169;28;21196;-80
2022/11/26 08:07:30;;;;;;;15.52;9.60;;;;;;;;;;5055098;28;20033;-79
2022/11/26 08:09:55;;;;;;;13.45;8.25;;;;;;;;;;5058237;28;20399;-78
2022/11/26 08:12:21;;;;;;;14.32;8.75;;;;;;;;;;5073056;28;20036;-78
2022/11/26 08:14:46;;;;;;;11.90;8.73;;;;;;;;;;5047520;28;20044;-78
2022/11/26 08:17:12;;;;;;;13.60;8.77;;;;;;;;;;5057064;28;20024;-78
2022/11/26 08:19:37;;;;;;;13.15;8.13;;;;;;;;;;5048115;28;20052;-80
2022/11/26 08:22:03;;;;;;;13.20;8.88;;;;;;;;;;5062592;28;20087;-80
2022/11/26 08:24:29;;;;;;;12.57;8.32;;;;;;;;;;5044956;28;20041;-80
2022/11/26 08:26:58;;;;;;;13.43;9.10;;;;;;;;;;5068219;28;20025;-79
2022/11/26 08:29:23;;;;;;;16.48;9.23;;;;;;;;;;5062933;28;20031;-78
2022/11/26 08:31:49;;;;;;;15.27;9.93;;;;;;;;;;5037718;28;20439;-80
2022/11/26 08:34:14;;;;;;;13.15;8.82;;;;;;;;;;5054713;28;20094;-81
2022/11/26 08:36:40;;;;;;;13.38;8.52;;;;;;;;;;5071268;28;20028;-82
2022/11/26 08:39:05;;;;;;;12.65;8.52;;;;;;;;;;5054695;28;20063;-79
2022/11/26 08:41:31;;;;;;;14.93;9.10;;;;;;;;;;5075576;28;20085;-78
2022/11/26 08:43:56;;;;;;;12.40;8.68;;;;;;;;;;5077085;28;20036;-80
2022/11/26 08:46:22;;;;;;;16.30;12.27;;;;;;;;;;5065284;28;20052;-79
2022/11/26 08:48:47;;;;;;;15.30;11.75;;;;;;;;;;5054497;28;20051;-79
2022/11/26 08:51:13;;;;;;;16.42;12.52;;;;;;;;;;5053386;28;20405;-80
2022/11/26 08:53:38;;;;;;;17.80;12.95;;;;;;;;;;5054368;28;20035;-78
2022/11/26 08:56:05;;;;;;;17.00;12.18;;;;;;;;;;5054602;28;20032;-79
2022/11/26 08:58:34;;;;;;;17.88;12.20;;;;;;;;;;5036741;28;20479;-78
2022/11/26 09:01:05;;;;;;;15.77;10.02;;;;;;;;;;5053348;28;20111;-78
2022/11/26 09:03:31;;;;;;;14.05;8.43;;;;;;;;;;5071466;28;20053;-79
2022/11/26 09:05:59;;;;;;;14.52;9.30;;;;;;;;;;5044476;28;20040;-81
2022/11/26 09:08:26;;;;;;;13.48;8.90;;;;;;;;;;5042638;28;20032;-78
2022/11/26 09:10:53;;;;;;;13.40;9.15;;;;;;;;;;5047956;28;20031;-78
2022/11/26 09:13:18;;;;;;;14.88;8.38;;;;;;;;;;5057759;28;20028;-79
2022/11/26 09:15:43;;;;;;;14.60;8.90;;;;;;;;;;5054375;28;20170;-81
2022/11/26 09:18:09;;;;;;;13.38;8.95;;;;;;;;;;5073211;28;20094;-78
2022/11/26 09:20:34;;;;;;;15.18;9.52;;;;;;;;;;5074674;28;20107;-77
2022/11/26 09:23:00;;;;;;;12.73;8.60;;;;;;;;;;5080536;28;20034;-78
2022/11/26 09:25:25;;;;;;;12.57;8.60;;;;;;;;;;5050574;28;20034;-78
2022/11/26 09:27:51;;;;;;;15.27;9.32;;;;;;;;;;5081651;28;20028;-79
2022/11/26 09:30:17;;;;;;;13.60;9.00;;;;;;;;;;5051087;28;20400;-80
2022/11/26 09:32:43;;;;;;;13.80;9.60;;;;;;;;;;5060868;28;20039;-78
2022/11/26 09:35:08;;;;;;;16.95;11.30;;;;;;;;;;5068115;28;20019;-78
2022/11/26 09:37:34;;;;;;;18.25;13.02;;;;;;;;;;5046869;28;20037;-77
2022/11/26 09:39:59;;;;;;;16.58;12.27;;;;;;;;;;5084903;28;20082;-80
2022/11/26 09:42:31;;;;;;;17.85;13.15;;;;;;;;;;5057381;28;20055;-79
2022/11/26 09:45:17;;;;;;;19.30;13.80;;;;;;;;;;5054882;28;20488;-78
2022/11/26 09:47:44;;;;;;;19.23;13.82;;;;;;;;;;5030439;28;20033;-79
2022/11/26 09:50:09;;;;;;;18.17;13.48;;;;;;;;;;5059547;28;20028;-79
2022/11/26 09:53:03;;;;;;;16.98;13.43;;;;;;;;;;5072242;28;20058;-79
2022/11/26 09:55:39;;;;;;;19.40;13.93;;;;;;;;;;5057900;28;20139;-79
2022/11/26 09:58:43;;;;;;;18.58;14.63;;;;;;;;;;5034536;28;20044;-79
2022/11/26 10:01:09;;;;;;;22.02;15.88;;;;;;;;;;5020871;28;20128;-79
2022/11/26 10:03:35;;;;;;;18.50;14.05;;;;;;;;;;4992132;28;20161;-78
2022/11/26 10:06:04;;;;;;;20.30;14.65;;;;;;;;;;5019385;28;20053;-78
2022/11/26 10:08:45;;;;;;;21.80;14.70;;;;;;;;;;5052146;28;20123;-80
2022/11/26 10:11:25;;;;;;;19.42;14.85;;;;;;;;;;5065999;28;20035;-79
2022/11/26 10:14:00;;;;;;;20.27;14.80;;;;;;;;;;5041843;28;20483;-79
2022/11/26 10:16:27;;;;;;;18.00;13.57;;;;;;;;;;5082166;28;20028;-78
2022/11/26 10:18:56;;;;;;;19.40;14.60;;;;;;;;;;5060642;28;20024;-78
2022/11/26 10:21:27;;;;;;;19.83;14.57;;;;;;;;;;5086594;28;20119;-78
2022/11/26 10:24:10;;;;;;;18.20;14.25;;;;;;;;;;5089046;28;20024;-78
2022/11/26 10:26:38;;;;;;;19.45;15.02;;;;;;;;;;5069991;28;20142;-79
2022/11/26 10:29:21;;;;;;;22.42;15.43;;;;;;;;;;5076609;28;20020;-77
2022/11/26 10:31:47;;;;;;;20.77;15.10;;;;;;;;;;5068361;28;20027;-78
2022/11/26 10:34:17;;;;;;;27.27;15.43;;;;;;;;;;5072447;28;20045;-79
2022/11/26 10:36:43;;;;;;;19.67;14.38;;;;;;;;;;5093504;28;20047;-79
2022/11/26 10:39:12;;;;;;;20.08;14.45;;;;;;;;;;5060554;28;20028;-78
2022/11/26 10:41:38;;;;;;;21.63;14.70;;;;;;;;;;5074047;28;20036;-80
2022/11/26 10:44:22;;;;;;;25.55;15.00;;;;;;;;;;5091972;28;20066;-79
2022/11/26 10:46:47;;;;;;;23.55;14.85;;;;;;;;;;5090737;28;20491;-79
2022/11/26 10:49:23;;;;;;;20.77;14.20;;;;;;;;;;5080526;28;20090;-76
2022/11/26 10:51:49;;;;;;;21.23;15.00;;;;;;;;;;5059551;28;20032;-79
2022/11/26 10:54:25;;;;;;;20.92;14.65;;;;;;;;;;5065019;28;20021;-77
2022/11/26 10:56:54;;;;;;;;;;;;;;;;;;5044099;28;20041;-77
2022/11/26 10:59:27;;;;;;;21.10;14.13;;;;;;;;;;5074170;28;20386;-80
2022/11/26 11:01:53;;;;;;;20.98;15.50;;;;;;;;;;5055840;28;20089;-78
2022/11/26 11:04:22;;;;;;;22.05;15.20;;;;;;;;;;5045403;28;20052;-79
2022/11/26 11:06:48;;;;;;;20.02;15.02;;;;;;;;;;5067458;28;20052;-78
2022/11/26 11:09:26;;;;;;;23.10;15.68;;;;;;;;;;5073199;28;20090;-78
2022/11/26 11:12:10;;;;;;;21.55;15.73;;;;;;;;;;5072039;28;20031;-77
2022/11/26 11:14:35;;;;;;;22.63;14.85;;;;;;;;;;5071828;28;20033;-77
2022/11/26 11:17:01;;;;;;;21.42;15.38;;;;;;;;;;5075296;28;20051;-78
2022/11/26 11:19:26;;;;;;;28.00;15.20;;;;;;;;;;5046336;28;20055;-78
2022/11/26 11:21:51;;;;;;;25.88;15.75;;;;;;;;;;5038528;28;20071;-78
2022/11/26 11:24:20;;;;;;;22.48;15.18;;;;;;;;;;5075379;28;20064;-79
2022/11/26 11:26:46;;;;;;;21.10;15.07;;;;;;;;;;5056109;28;20090;-79
2022/11/26 11:29:11;;;;;;;;;;;;;;;;;;5039929;28;20028;-78
2022/11/26 11:31:43;;;;;;;23.92;16.20;;;;;;;;;;5055858;28;20003;-78
2022/11/26 11:34:16;;;;;;;24.98;15.82;;;;;;;;;;5062700;28;20039;-78
2022/11/26 11:36:42;;;;;;;24.67;16.40;;;;;;;;;;5056480;28;20033;-78
2022/11/26 11:39:08;;;;;;;36.42;17.70;;;;;;;;;;5073795;28;20103;-78
2022/11/26 11:41:46;;;;;;;23.35;15.93;;;;;;;;;;5038731;28;20044;-79
2022/11/26 11:44:41;;;;;;;24.17;15.73;;;;;;;;;;5073605;28;20023;-78
2022/11/26 11:47:06;;;;;;;21.70;15.55;;;;;;;;;;5073392;28;20044;-78
2022/11/26 11:49:35;;;;;;;22.30;16.08;;;;;;;;;;5092280;28;20027;-78
2022/11/26 11:52:19;;;;;;;23.17;16.48;;;;;;;;;;5077667;28;20387;-77
2022/11/26 11:55:03;;;;;;;22.90;16.35;;;;;;;;;;5078384;28;20035;-78
2022/11/26 11:57:29;;;;;;;22.25;16.50;;;;;;;;;;5073887;28;20143;-79
2022/11/26 12:00:09;;;;;;;24.85;17.40;;;;;;;;;;5082258;28;20115;-80
2022/11/26 12:02:38;;;;;;;26.08;17.80;;;;;;;;;;5072704;28;20040;-79
2022/11/26 12:05:15;;;;;;;24.15;17.05;;;;;;;;;;5078344;28;20037;-76
2022/11/26 12:07:42;;;;;;;23.55;16.92;;;;;;;;;;5076508;28;20411;-80
2022/11/26 12:10:09;;;;;;;24.92;17.50;;;;;;;;;;5070767;28;20490;-79
2022/11/26 12:12:35;;;;;;;23.98;18.40;;;;;;;;;;5064049;28;20440;-78
2022/11/26 12:15:17;;;;;;;25.35;18.33;;;;;;;;;;5055099;28;20027;-79
2022/11/26 12:17:42;;;;;;;28.77;18.98;;;;;;;;;;5056032;28;20028;-79
2022/11/26 12:20:22;;;;;;;30.30;18.60;;;;;;;;;;5077272;28;20039;-79
2022/11/26 12:22:52;;;;;;;29.83;19.52;;;;;;;;;;5043077;28;20406;-78
2022/11/26 12:25:18;;;;;;;28.38;18.00;;;;;;;;;;5054040;28;20042;-77
2022/11/26 12:27:49;;;;;;;23.67;16.23;;;;;;;;;;5060992;28;20024;-78
2022/11/26 12:30:25;;;;;;;24.88;16.70;;;;;;;;;;5074587;28;20058;-79
2022/11/26 12:33:00;;;;;;;19.73;15.65;;;;;;;;;;5054838;28;20032;-79
2022/11/26 12:35:26;;;;;;;24.40;16.38;;;;;;;;;;5068200;28;20131;-78
2022/11/26 12:37:51;;;;;;;19.90;14.98;;;;;;;;;;5073411;28;20028;-78
2022/11/26 12:40:16;;;;;;;;;;;;;;;;;;5052776;28;20078;-78
2022/11/26 12:42:44;;;;;;;20.63;15.40;;;;;;;;;;5073532;28;19962;-78
2022/11/26 12:45:25;;;;;;;23.73;16.75;;;;;;;;;;5065482;28;20060;-77
2022/11/26 12:47:52;;;;;;;23.65;16.42;;;;;;;;;;5061109;28;20036;-78
2022/11/26 12:50:21;;;;;;;24.27;16.95;;;;;;;;;;5059588;28;20016;-79
2022/11/26 12:52:51;;;;;;;23.83;16.17;;;;;;;;;;5072173;28;20494;-78
2022/11/26 12:55:17;;;;;;;24.15;17.02;;;;;;;;;;5057639;28;20136;-77
2022/11/26 12:57:52;;;;;;;23.23;16.55;;;;;;;;;;5044973;28;20123;-79
2022/11/26 13:00:19;;;;;;;21.85;15.93;;;;;;;;;;5076865;28;20108;-77
2022/11/26 13:02:46;;;;;;;22.63;16.77;;;;;;;;;;5059536;28;20052;-78
2022/11/26 13:05:19;;;;;;;21.65;15.68;;;;;;;;;;5042544;28;20484;-80
2022/11/26 13:08:20;;;;;;;22.95;16.27;;;;;;;;;;5080038;28;20045;-78
2022/11/26 13:10:46;;;;;;;22.90;16.10;;;;;;;;;;4993618;28;20041;-80
2022/11/26 13:13:20;;;;;;;21.17;16.05;;;;;;;;;;5062383;28;20035;-78
2022/11/26 13:15:49;;;;;;;21.27;15.98;;;;;;;;;;5073826;28;20036;-78
2022/11/26 13:18:20;;;;;;;21.67;15.75;;;;;;;;;;5055988;28;20027;-78
2022/11/26 13:21:08;;;;;;;21.95;15.73;;;;;;;;;;5053533;28;20123;-79
2022/11/26 13:23:43;;;;;;;21.70;12.32;;;;;;;;;;5055304;28;20527;-81
2022/11/26 13:26:08;;;;;;;22.33;11.95;;;;;;;;;;5071531;28;20440;-80
2022/11/26 13:28:49;;;;;;;20.30;12.70;;;;;;;;;;5037619;28;20052;-81
2022/11/26 13:31:33;;;;;;;21.52;11.82;;;;;;;;;;5057631;28;20116;-80
2022/11/26 13:34:11;;;;;;;19.85;11.73;;;;;;;;;;5049747;28;20031;-79
2022/11/26 13:36:40;;;;;;;20.75;11.73;;;;;;;;;;5067147;28;20058;-81
2022/11/26 13:39:24;;;;;;;21.20;12.25;;;;;;;;;;5075882;28;20025;-82
2022/11/26 13:41:59;;;;;;;19.33;11.40;;;;;;;;;;5071272;28;20028;-79
2022/11/26 13:44:45;;;;;;;20.45;11.07;;;;;;;;;;5054119;28;20032;-80
2022/11/26 13:47:19;;;;;;;21.02;11.90;;;;;;;;;;5070805;28;20043;-80
2022/11/26 13:49:47;;;;;;;20.27;11.23;;;;;;;;;;5072266;28;20059;-79
2022/11/26 13:52:18;;;;;;;19.83;11.90;;;;;;;;;;5053892;28;20470;-81
2022/11/26 13:54:51;;;;;;;16.98;10.70;;;;;;;;;;5053759;28;20035;-79
2022/11/26 13:57:20;;;;;;;20.55;11.60;;;;;;;;;;5072525;28;20055;-80
2022/11/26 13:59:49;;;;;;;18.17;10.70;;;;;;;;;;5053311;28;20032;-79
2022/11/26 14:02:33;;;;;;;18.75;11.27;;;;;;;;;;5034434;28;20329;-81
2022/11/26 14:05:01;;;;;;;16.13;10.77;;;;;;;;;;5073199;28;20053;-79
2022/11/26 14:07:27;;;;;;;18.67;10.93;;;;;;;;;;5071887;28;20036;-80
2022/11/26 14:09:53;;;;;;;23.83;12.07;;;;;;;;;;5055200;28;20029;-80
2022/11/26 14:12:18;;;;;;;;;;;;;;;;;;5020109;28;20024;-80
2022/11/26 14:14:47;;;;;;;19.08;10.82;;;;;;;;;;5052716;28;19924;-80
2022/11/26 14:17:20;;;;;;;20.45;11.40;;;;;;;;;;5071086;28;20067;-80
2022/11/26 14:19:50;;;;;;;22.10;12.43;;;;;;;;;;5040858;28;20422;-79
2022/11/26 14:22:19;;;;;;;21.77;12.80;;;;;;;;;;5065298;28;20035;-79
2022/11/26 14:24:55;;;;;;;19.67;12.25;;;;;;;;;;5075635;28;20036;-79
2022/11/26 14:27:20;;;;;;;21.30;12.43;;;;;;;;;;5051108;28;20119;-80
2022/11/26 14:29:46;;;;;;;22.98;13.93;;;;;;;;;;5052516;28;20357;-79